CFG3090 EDDG-HEGN
Flight info
| Callsign | CFG3090 |
|---|---|
| Flight time | 4h 20m |
| Altitude | 23000 |
| Route | DOMEG1E DOMEG Z841 BIGSU/N0457F370 L603 TESGA DCT OSBIT DCT KEMES DCT LAMSI DCT NURMI DCT GOTAR DCT NALOX DCT SME DCT SUNOR DCT VEBAL DCT VEBAR DCT VABEK UL603 OLOTA DCT RUGAS UN128 FSK UG18 GIKAS/N0454F390 UG18 MES UL609 RDS UN129 KUMBI L612 BLT A16 CVO L315 SOKOT SOKOT1A |
| Aircraft | A339/H-SADE1E2E3GHIJ3J5M1P2RWXY/LB2D1 |
Departure
| Time | 2026-04-26 14:56 |
|---|---|
| Airport | Münster Osnabrück Airport (EDDG) |
Arrival
| Time | 2026-04-26 19:16 |
|---|---|
| Airport | Hurghada International Airport (HEGN) |
| Time | Latitude | Longitude | Altitude | Speed | Heading |
|---|---|---|---|---|---|
| 2026-04-26 13:55 | 52.13228 | 7.68820 | 173 ft | 0 kts | 162° |
| 2026-04-26 14:41 | 52.13227 | 7.68820 | 173 ft | 0 kts | 162° |
| 2026-04-26 14:41 | 52.13214 | 7.68824 | 173 ft | 4 kts | 172° |
| 2026-04-26 14:42 | 52.13188 | 7.68816 | 174 ft | 3 kts | 191° |
| 2026-04-26 14:42 | 52.13164 | 7.68826 | 174 ft | 5 kts | 158° |
| 2026-04-26 14:42 | 52.13162 | 7.68908 | 173 ft | 9 kts | 57° |
| 2026-04-26 14:42 | 52.13217 | 7.68912 | 172 ft | 9 kts | 348° |
| 2026-04-26 14:43 | 52.13282 | 7.68878 | 171 ft | 11 kts | 342° |
| 2026-04-26 14:43 | 52.13341 | 7.68816 | 172 ft | 9 kts | 301° |
| 2026-04-26 14:43 | 52.13339 | 7.68730 | 173 ft | 7 kts | 258° |
| 2026-04-26 14:43 | 52.13328 | 7.68668 | 174 ft | 5 kts | 253° |
| 2026-04-26 14:44 | 52.13319 | 7.68621 | 175 ft | 4 kts | 251° |
| 2026-04-26 14:44 | 52.13307 | 7.68565 | 176 ft | 11 kts | 250° |
| 2026-04-26 14:44 | 52.13272 | 7.68407 | 174 ft | 16 kts | 251° |
| 2026-04-26 14:44 | 52.13236 | 7.68237 | 175 ft | 15 kts | 250° |
| 2026-04-26 14:45 | 52.13200 | 7.68068 | 173 ft | 17 kts | 248° |
| 2026-04-26 14:45 | 52.13175 | 7.67946 | 172 ft | 17 kts | 252° |
| 2026-04-26 14:45 | 52.13119 | 7.67689 | 167 ft | 19 kts | 251° |
| 2026-04-26 14:45 | 52.13081 | 7.67484 | 168 ft | 18 kts | 251° |
| 2026-04-26 14:46 | 52.13018 | 7.67314 | 168 ft | 15 kts | 229° |
| 2026-04-26 14:46 | 52.12995 | 7.67210 | 170 ft | 6 kts | 258° |
| 2026-04-26 14:46 | 52.13003 | 7.67152 | 171 ft | 7 kts | 292° |
| 2026-04-26 14:46 | 52.13032 | 7.67098 | 171 ft | 0 kts | 326° |
| 2026-04-26 14:48 | 52.13035 | 7.67095 | 171 ft | 1 kts | 327° |
| 2026-04-26 14:48 | 52.13035 | 7.67094 | 171 ft | 0 kts | 327° |
| 2026-04-26 14:52 | 52.13036 | 7.67094 | 171 ft | 0 kts | 327° |
| 2026-04-26 14:52 | 52.13041 | 7.67086 | 171 ft | 1 kts | 324° |
| 2026-04-26 14:53 | 52.13049 | 7.67075 | 171 ft | 0 kts | 319° |
| 2026-04-26 14:53 | 52.13050 | 7.67074 | 171 ft | 0 kts | 319° |
| 2026-04-26 14:53 | 52.13065 | 7.67052 | 171 ft | 9 kts | 319° |
| 2026-04-26 14:53 | 52.13097 | 7.67011 | 171 ft | 3 kts | 318° |
| 2026-04-26 14:54 | 52.13098 | 7.67008 | 171 ft | 0 kts | 317° |
| 2026-04-26 14:54 | 52.13102 | 7.67007 | 171 ft | 3 kts | 328° |
| 2026-04-26 14:54 | 52.13148 | 7.67038 | 170 ft | 7 kts | 47° |
| 2026-04-26 14:54 | 52.13149 | 7.67040 | 170 ft | 0 kts | 50° |
| 2026-04-26 14:55 | 52.13256 | 7.67481 | 166 ft | 83 kts | 71° |
| 2026-04-26 14:55 | 52.13522 | 7.68742 | 174 ft | 150 kts | 71° |
| 2026-04-26 14:55 | 52.13917 | 7.70502 | 529 ft | 173 kts | 68° |
| 2026-04-26 14:56 | 52.14318 | 7.72226 | 1424 ft | 161 kts | 59° |
| 2026-04-26 14:56 | 52.14807 | 7.74072 | 1695 ft | 187 kts | 56° |
| 2026-04-26 14:56 | 52.15278 | 7.76033 | 2275 ft | 186 kts | 71° |
| 2026-04-26 14:56 | 52.15049 | 7.78120 | 2569 ft | 198 kts | 117° |
| 2026-04-26 14:57 | 52.13947 | 7.79445 | 3071 ft | 199 kts | 147° |
| 2026-04-26 14:57 | 52.12688 | 7.80578 | 3478 ft | 216 kts | 138° |
| 2026-04-26 14:57 | 52.11633 | 7.82440 | 3799 ft | 234 kts | 127° |
| 2026-04-26 14:57 | 52.10455 | 7.84436 | 4002 ft | 256 kts | 141° |
| 2026-04-26 14:58 | 52.08817 | 7.85673 | 4428 ft | 265 kts | 167° |
| 2026-04-26 14:58 | 52.06979 | 7.85702 | 5007 ft | 268 kts | 192° |
| 2026-04-26 14:58 | 52.05267 | 7.84532 | 5577 ft | 269 kts | 212° |
| 2026-04-26 14:58 | 52.03704 | 7.82826 | 6204 ft | 272 kts | 216° |
| 2026-04-26 14:59 | 52.02106 | 7.81142 | 6764 ft | 276 kts | 212° |
| 2026-04-26 14:59 | 52.00414 | 7.79619 | 7343 ft | 279 kts | 208° |
| 2026-04-26 14:59 | 51.98652 | 7.78230 | 7923 ft | 283 kts | 206° |
| 2026-04-26 14:59 | 51.97462 | 7.77359 | 8322 ft | 285 kts | 206° |
| 2026-04-26 15:00 | 51.95012 | 7.75631 | 9130 ft | 289 kts | 205° |
| 2026-04-26 15:00 | 51.93155 | 7.74335 | 9746 ft | 292 kts | 206° |
| 2026-04-26 15:00 | 51.91279 | 7.73021 | 10340 ft | 295 kts | 206° |
| 2026-04-26 15:00 | 51.89356 | 7.71671 | 10624 ft | 310 kts | 206° |
| 2026-04-26 15:01 | 51.87332 | 7.70239 | 10797 ft | 327 kts | 206° |
| 2026-04-26 15:01 | 51.85193 | 7.68742 | 10975 ft | 342 kts | 203° |
| 2026-04-26 15:01 | 51.82822 | 7.68053 | 11427 ft | 352 kts | 181° |
| 2026-04-26 15:01 | 51.80398 | 7.68770 | 11945 ft | 359 kts | 160° |
| 2026-04-26 15:02 | 51.78247 | 7.70819 | 12473 ft | 364 kts | 139° |
| 2026-04-26 15:02 | 51.76623 | 7.73960 | 12983 ft | 367 kts | 121° |
| 2026-04-26 15:02 | 51.75383 | 7.77571 | 13483 ft | 370 kts | 117° |
| 2026-04-26 15:02 | 51.74111 | 7.81211 | 14008 ft | 374 kts | 121° |
| 2026-04-26 15:03 | 51.72700 | 7.84741 | 14479 ft | 376 kts | 124° |
| 2026-04-26 15:03 | 51.71174 | 7.88186 | 14971 ft | 378 kts | 126° |
| 2026-04-26 15:03 | 51.69584 | 7.91573 | 15461 ft | 380 kts | 128° |
| 2026-04-26 15:03 | 51.67957 | 7.94959 | 15953 ft | 382 kts | 128° |
| 2026-04-26 15:04 | 51.66320 | 7.98347 | 16421 ft | 385 kts | 128° |
| 2026-04-26 15:04 | 51.64671 | 8.01757 | 16898 ft | 387 kts | 128° |
| 2026-04-26 15:04 | 51.63013 | 8.05178 | 17367 ft | 389 kts | 129° |
| 2026-04-26 15:04 | 51.61343 | 8.08618 | 17833 ft | 392 kts | 129° |
| 2026-04-26 15:05 | 51.59656 | 8.12092 | 18311 ft | 394 kts | 129° |
| 2026-04-26 15:05 | 51.58541 | 8.14392 | 18613 ft | 396 kts | 129° |
| 2026-04-26 15:05 | 51.56268 | 8.19079 | 19162 ft | 399 kts | 129° |
| 2026-04-26 15:05 | 51.54554 | 8.22604 | 19579 ft | 401 kts | 129° |
| 2026-04-26 15:06 | 51.52853 | 8.26098 | 20004 ft | 404 kts | 129° |
| 2026-04-26 15:06 | 51.51090 | 8.29699 | 20403 ft | 406 kts | 129° |
| 2026-04-26 15:06 | 51.49370 | 8.33210 | 20843 ft | 408 kts | 129° |
| 2026-04-26 15:06 | 51.47634 | 8.36755 | 21242 ft | 411 kts | 129° |
| 2026-04-26 15:07 | 51.44062 | 8.44054 | 22071 ft | 416 kts | 129° |
| 2026-04-26 15:07 | 51.42293 | 8.47665 | 22471 ft | 419 kts | 129° |
| 2026-04-26 15:07 | 51.40486 | 8.51347 | 22897 ft | 421 kts | 129° |
| 2026-04-26 15:08 | 51.38648 | 8.55087 | 23319 ft | 424 kts | 129° |
| 2026-04-26 15:08 | 51.36838 | 8.58765 | 23729 ft | 427 kts | 129° |
| 2026-04-26 15:08 | 51.34993 | 8.62508 | 24111 ft | 429 kts | 129° |
| 2026-04-26 15:08 | 51.33143 | 8.66258 | 24538 ft | 430 kts | 130° |
| 2026-04-26 15:09 | 51.31287 | 8.70013 | 24873 ft | 432 kts | 130° |
| 2026-04-26 15:09 | 51.29419 | 8.73787 | 25240 ft | 435 kts | 129° |
| 2026-04-26 15:09 | 51.27537 | 8.77583 | 25604 ft | 437 kts | 130° |
| 2026-04-26 15:09 | 51.25647 | 8.81389 | 25960 ft | 439 kts | 129° |
| 2026-04-26 15:10 | 51.23743 | 8.85216 | 26299 ft | 441 kts | 129° |
| 2026-04-26 15:10 | 51.22453 | 8.87802 | 26576 ft | 441 kts | 129° |
| 2026-04-26 15:10 | 51.19915 | 8.92891 | 27030 ft | 444 kts | 129° |
| 2026-04-26 15:10 | 51.17985 | 8.96755 | 27362 ft | 446 kts | 129° |
| 2026-04-26 15:11 | 51.16046 | 9.00631 | 27714 ft | 448 kts | 129° |
| 2026-04-26 15:11 | 51.14095 | 9.04523 | 28043 ft | 451 kts | 129° |
| 2026-04-26 15:11 | 51.12834 | 9.07035 | 28275 ft | 452 kts | 129° |
| 2026-04-26 15:12 | 51.11886 | 9.08923 | 28424 ft | 453 kts | 129° |
| 2026-04-26 15:12 | 51.10013 | 9.12652 | 28725 ft | 455 kts | 129° |
| 2026-04-26 15:12 | 51.08032 | 9.16591 | 29055 ft | 457 kts | 129° |
| 2026-04-26 15:13 | 51.06041 | 9.20542 | 29354 ft | 459 kts | 129° |
| 2026-04-26 15:13 | 51.04037 | 9.24511 | 29649 ft | 461 kts | 129° |
| 2026-04-26 15:13 | 51.02015 | 9.28498 | 29954 ft | 463 kts | 129° |
| 2026-04-26 15:13 | 50.99988 | 9.32482 | 30262 ft | 465 kts | 129° |
| 2026-04-26 15:14 | 50.97950 | 9.36486 | 30532 ft | 468 kts | 129° |
| 2026-04-26 15:14 | 50.95898 | 9.40514 | 30778 ft | 470 kts | 129° |
| 2026-04-26 15:14 | 50.93843 | 9.44548 | 31060 ft | 472 kts | 129° |
| 2026-04-26 15:14 | 50.91791 | 9.48582 | 31501 ft | 469 kts | 130° |
| 2026-04-26 15:15 | 50.89732 | 9.52617 | 31703 ft | 473 kts | 130° |
| 2026-04-26 15:15 | 50.87655 | 9.56679 | 31938 ft | 475 kts | 130° |
| 2026-04-26 15:15 | 50.85568 | 9.60752 | 32184 ft | 477 kts | 130° |
| 2026-04-26 15:15 | 50.83471 | 9.64839 | 32437 ft | 480 kts | 130° |
| 2026-04-26 15:16 | 50.81365 | 9.68939 | 32679 ft | 482 kts | 130° |
| 2026-04-26 15:16 | 50.79248 | 9.73055 | 32878 ft | 484 kts | 130° |
| 2026-04-26 15:16 | 50.77121 | 9.77181 | 33073 ft | 485 kts | 130° |
| 2026-04-26 15:16 | 50.74981 | 9.81326 | 33252 ft | 487 kts | 130° |
| 2026-04-26 15:17 | 50.72837 | 9.85476 | 33406 ft | 488 kts | 130° |
| 2026-04-26 15:17 | 50.71384 | 9.88283 | 33535 ft | 489 kts | 130° |
| 2026-04-26 15:17 | 50.68534 | 9.93781 | 33715 ft | 490 kts | 130° |
| 2026-04-26 15:17 | 50.66370 | 9.97947 | 33863 ft | 491 kts | 130° |
| 2026-04-26 15:18 | 50.64204 | 10.02108 | 34023 ft | 491 kts | 130° |
| 2026-04-26 15:18 | 50.62037 | 10.06265 | 34186 ft | 491 kts | 130° |
| 2026-04-26 15:18 | 50.59868 | 10.10419 | 34341 ft | 491 kts | 130° |
| 2026-04-26 15:18 | 50.57701 | 10.14563 | 34484 ft | 491 kts | 130° |
| 2026-04-26 15:19 | 50.55530 | 10.18709 | 34629 ft | 491 kts | 130° |
| 2026-04-26 15:19 | 50.53361 | 10.22844 | 34768 ft | 491 kts | 130° |
| 2026-04-26 15:19 | 50.51187 | 10.26983 | 34904 ft | 491 kts | 131° |
| 2026-04-26 15:19 | 50.49018 | 10.31110 | 35045 ft | 491 kts | 131° |
| 2026-04-26 15:20 | 50.46840 | 10.35242 | 35176 ft | 491 kts | 131° |
| 2026-04-26 15:20 | 50.44663 | 10.39364 | 35307 ft | 491 kts | 131° |
| 2026-04-26 15:20 | 50.42484 | 10.43486 | 35438 ft | 491 kts | 131° |
| 2026-04-26 15:20 | 50.40305 | 10.47599 | 35571 ft | 491 kts | 131° |
| 2026-04-26 15:21 | 50.38121 | 10.51715 | 35684 ft | 491 kts | 131° |
| 2026-04-26 15:21 | 50.35934 | 10.55830 | 35818 ft | 491 kts | 131° |
| 2026-04-26 15:21 | 50.33748 | 10.59938 | 35952 ft | 491 kts | 131° |
| 2026-04-26 15:21 | 50.31561 | 10.64042 | 36084 ft | 491 kts | 131° |
| 2026-04-26 15:22 | 50.29374 | 10.68142 | 36200 ft | 491 kts | 131° |
| 2026-04-26 15:22 | 50.27181 | 10.72244 | 36321 ft | 491 kts | 131° |
| 2026-04-26 15:22 | 50.24988 | 10.76338 | 36454 ft | 491 kts | 131° |
| 2026-04-26 15:22 | 50.22795 | 10.80424 | 36577 ft | 491 kts | 131° |
| 2026-04-26 15:23 | 50.20598 | 10.84513 | 36700 ft | 491 kts | 131° |
| 2026-04-26 15:23 | 50.18404 | 10.88591 | 36836 ft | 491 kts | 131° |
| 2026-04-26 15:23 | 50.16207 | 10.92667 | 36955 ft | 491 kts | 131° |
| 2026-04-26 15:23 | 50.14005 | 10.96745 | 37075 ft | 491 kts | 131° |
| 2026-04-26 15:24 | 50.11811 | 11.00806 | 37195 ft | 491 kts | 131° |
| 2026-04-26 15:24 | 50.09607 | 11.04875 | 37266 ft | 491 kts | 132° |
| 2026-04-26 15:24 | 50.05200 | 11.12995 | 37263 ft | 491 kts | 132° |
| 2026-04-26 15:25 | 50.01536 | 11.19726 | 37271 ft | 490 kts | 132° |
| 2026-04-26 15:25 | 49.96376 | 11.29175 | 37242 ft | 491 kts | 132° |
| 2026-04-26 15:26 | 49.91955 | 11.37245 | 37231 ft | 491 kts | 132° |
| 2026-04-26 15:26 | 49.87528 | 11.45300 | 37232 ft | 491 kts | 132° |
| 2026-04-26 15:27 | 49.83092 | 11.53347 | 37245 ft | 490 kts | 132° |
| 2026-04-26 15:27 | 49.78656 | 11.61369 | 37244 ft | 490 kts | 132° |
| 2026-04-26 15:28 | 49.74219 | 11.69388 | 37238 ft | 490 kts | 132° |
| 2026-04-26 15:28 | 49.69806 | 11.77338 | 37231 ft | 491 kts | 132° |
| 2026-04-26 15:29 | 49.65348 | 11.85331 | 37218 ft | 492 kts | 133° |
| 2026-04-26 15:30 | 49.56407 | 12.01275 | 37212 ft | 491 kts | 133° |
| 2026-04-26 15:30 | 49.51933 | 12.09214 | 37228 ft | 491 kts | 133° |
| 2026-04-26 15:31 | 49.45968 | 12.19763 | 37236 ft | 491 kts | 133° |
| 2026-04-26 15:32 | 49.39960 | 12.30343 | 37232 ft | 491 kts | 133° |
| 2026-04-26 15:32 | 49.34740 | 12.39516 | 37236 ft | 491 kts | 133° |
| 2026-04-26 15:33 | 49.30244 | 12.47401 | 37235 ft | 491 kts | 133° |
| 2026-04-26 15:33 | 49.25739 | 12.55260 | 37231 ft | 491 kts | 133° |
| 2026-04-26 15:34 | 49.21220 | 12.63093 | 37233 ft | 491 kts | 134° |
| 2026-04-26 15:34 | 49.16699 | 12.70910 | 37227 ft | 491 kts | 134° |
| 2026-04-26 15:35 | 49.12176 | 12.78721 | 37228 ft | 491 kts | 134° |
| 2026-04-26 15:35 | 49.07648 | 12.86525 | 37224 ft | 491 kts | 134° |
| 2026-04-26 15:36 | 49.03117 | 12.94310 | 37220 ft | 491 kts | 134° |
| 2026-04-26 15:36 | 48.98583 | 13.02077 | 37212 ft | 490 kts | 134° |
| 2026-04-26 15:37 | 48.94053 | 13.09813 | 37209 ft | 490 kts | 134° |
| 2026-04-26 15:37 | 48.89508 | 13.17554 | 37207 ft | 490 kts | 134° |
| 2026-04-26 15:38 | 48.84968 | 13.25264 | 37208 ft | 490 kts | 134° |
| 2026-04-26 15:38 | 48.80419 | 13.32965 | 37203 ft | 490 kts | 134° |
| 2026-04-26 15:39 | 48.75865 | 13.40658 | 37200 ft | 490 kts | 134° |
| 2026-04-26 15:39 | 48.72081 | 13.47039 | 37196 ft | 489 kts | 134° |
| 2026-04-26 15:40 | 48.66788 | 13.55933 | 37191 ft | 489 kts | 135° |
| 2026-04-26 15:40 | 48.61955 | 13.63131 | 37193 ft | 487 kts | 140° |
| 2026-04-26 15:41 | 48.56978 | 13.70087 | 37193 ft | 487 kts | 139° |
| 2026-04-26 15:41 | 48.52023 | 13.77066 | 37192 ft | 487 kts | 140° |
| 2026-04-26 15:42 | 48.47059 | 13.84026 | 37189 ft | 487 kts | 140° |
| 2026-04-26 15:42 | 48.42102 | 13.90949 | 37191 ft | 485 kts | 140° |
| 2026-04-26 15:43 | 48.37146 | 13.97849 | 37190 ft | 486 kts | 140° |
| 2026-04-26 15:44 | 48.29694 | 14.08167 | 37186 ft | 485 kts | 140° |
| 2026-04-26 15:44 | 48.22242 | 14.18451 | 37184 ft | 485 kts | 140° |
| 2026-04-26 15:45 | 48.14785 | 14.28715 | 37183 ft | 485 kts | 140° |
| 2026-04-26 15:46 | 48.07330 | 14.38937 | 37185 ft | 485 kts | 140° |
| 2026-04-26 15:46 | 48.03193 | 14.44593 | 37184 ft | 485 kts | 140° |
| 2026-04-26 15:47 | 47.94875 | 14.55922 | 37185 ft | 485 kts | 140° |
| 2026-04-26 15:48 | 47.89873 | 14.62709 | 37182 ft | 486 kts | 140° |
| 2026-04-26 15:48 | 47.84868 | 14.69483 | 37179 ft | 486 kts | 140° |
| 2026-04-26 15:49 | 47.79869 | 14.76233 | 37171 ft | 485 kts | 140° |
| 2026-04-26 15:49 | 47.74897 | 14.82923 | 37178 ft | 486 kts | 140° |
| 2026-04-26 15:50 | 47.69883 | 14.89654 | 37178 ft | 487 kts | 140° |
| 2026-04-26 15:50 | 47.65184 | 14.96936 | 37167 ft | 489 kts | 129° |
| 2026-04-26 15:51 | 47.61106 | 15.05006 | 37169 ft | 490 kts | 129° |
| 2026-04-26 15:51 | 47.56989 | 15.13081 | 37167 ft | 490 kts | 129° |
| 2026-04-26 15:52 | 47.52865 | 15.21118 | 37162 ft | 490 kts | 129° |
| 2026-04-26 15:52 | 47.48744 | 15.29125 | 37162 ft | 489 kts | 129° |
| 2026-04-26 15:53 | 47.44616 | 15.37122 | 37162 ft | 490 kts | 129° |
| 2026-04-26 15:53 | 47.40471 | 15.45122 | 37161 ft | 490 kts | 129° |
| 2026-04-26 15:54 | 47.36328 | 15.53097 | 37163 ft | 490 kts | 129° |
| 2026-04-26 15:54 | 47.32163 | 15.61091 | 37160 ft | 495 kts | 129° |
| 2026-04-26 15:55 | 47.27964 | 15.69131 | 37162 ft | 494 kts | 129° |
| 2026-04-26 15:55 | 47.23774 | 15.77141 | 37168 ft | 494 kts | 129° |
| 2026-04-26 15:56 | 47.19575 | 15.85154 | 37167 ft | 494 kts | 129° |
| 2026-04-26 15:56 | 47.15355 | 15.93137 | 37171 ft | 495 kts | 129° |
| 2026-04-26 15:57 | 47.11130 | 16.01121 | 37180 ft | 495 kts | 129° |
| 2026-04-26 15:57 | 47.06906 | 16.09088 | 37176 ft | 493 kts | 129° |
| 2026-04-26 15:58 | 47.02738 | 16.16996 | 37170 ft | 494 kts | 127° |
| 2026-04-26 15:58 | 46.99473 | 16.25819 | 37156 ft | 494 kts | 100° |
| 2026-04-26 15:58 | 46.98818 | 16.30832 | 36784 ft | 497 kts | 86° |
| 2026-04-26 15:59 | 46.98675 | 16.35926 | 35511 ft | 506 kts | 88° |
| 2026-04-26 15:59 | 46.98476 | 16.40917 | 35558 ft | 486 kts | 95° |
| 2026-04-26 15:59 | 46.97573 | 16.45479 | 36826 ft | 454 kts | 110° |
| 2026-04-26 16:00 | 46.95275 | 16.54055 | 37147 ft | 445 kts | 110° |
| 2026-04-26 16:00 | 46.93953 | 16.58154 | 36944 ft | 448 kts | 114° |
| 2026-04-26 16:00 | 46.92445 | 16.62091 | 37236 ft | 440 kts | 114° |
| 2026-04-26 16:01 | 46.89186 | 16.69592 | 37252 ft | 436 kts | 118° |
| 2026-04-26 16:01 | 46.87633 | 16.73464 | 36866 ft | 450 kts | 108° |
| 2026-04-26 16:01 | 46.86513 | 16.77751 | 36689 ft | 450 kts | 113° |
| 2026-04-26 16:01 | 46.84856 | 16.81543 | 37170 ft | 433 kts | 123° |
| 2026-04-26 16:02 | 46.83005 | 16.85007 | 36764 ft | 445 kts | 126° |
| 2026-04-26 16:02 | 46.80964 | 16.88385 | 36884 ft | 434 kts | 133° |
| 2026-04-26 16:02 | 46.78779 | 16.91329 | 37229 ft | 428 kts | 135° |
| 2026-04-26 16:03 | 46.74430 | 16.97311 | 37040 ft | 432 kts | 136° |
| 2026-04-26 16:03 | 46.72138 | 17.00140 | 37223 ft | 429 kts | 135° |
| 2026-04-26 16:03 | 46.69875 | 17.03020 | 36717 ft | 441 kts | 132° |
| 2026-04-26 16:03 | 46.67500 | 17.05918 | 36072 ft | 442 kts | 147° |
| 2026-04-26 16:04 | 46.64842 | 17.07905 | 36828 ft | 419 kts | 153° |
| 2026-04-26 16:04 | 46.62199 | 17.09371 | 37265 ft | 407 kts | 162° |
| 2026-04-26 16:04 | 46.59469 | 17.10687 | 37154 ft | 410 kts | 162° |
| 2026-04-26 16:04 | 46.56747 | 17.12103 | 36814 ft | 420 kts | 158° |
| 2026-04-26 16:05 | 46.54019 | 17.13495 | 37197 ft | 412 kts | 166° |
| 2026-04-26 16:05 | 46.48529 | 17.16007 | 36712 ft | 427 kts | 160° |
| 2026-04-26 16:05 | 46.45748 | 17.17573 | 37098 ft | 420 kts | 150° |
| 2026-04-26 16:06 | 46.43091 | 17.19307 | 36712 ft | 432 kts | 152° |
| 2026-04-26 16:06 | 46.40408 | 17.21427 | 36723 ft | 433 kts | 141° |
| 2026-04-26 16:06 | 46.37852 | 17.23635 | 36612 ft | 433 kts | 153° |
| 2026-04-26 16:06 | 46.35059 | 17.25159 | 36834 ft | 424 kts | 159° |
| 2026-04-26 16:07 | 46.32282 | 17.26446 | 37175 ft | 414 kts | 164° |
| 2026-04-26 16:07 | 46.29460 | 17.27185 | 37057 ft | 413 kts | 175° |
| 2026-04-26 16:07 | 46.26596 | 17.27382 | 37095 ft | 413 kts | 171° |
| 2026-04-26 16:08 | 46.20827 | 17.28428 | 37002 ft | 419 kts | 182° |
| 2026-04-26 16:08 | 46.18866 | 17.28514 | 37143 ft | 418 kts | 172° |
| 2026-04-26 16:08 | 46.15033 | 17.28917 | 37201 ft | 414 kts | 174° |
| 2026-04-26 16:08 | 46.12136 | 17.29085 | 37083 ft | 417 kts | 177° |
| 2026-04-26 16:09 | 46.09218 | 17.29365 | 36934 ft | 424 kts | 168° |
| 2026-04-26 16:09 | 46.06271 | 17.29916 | 36756 ft | 430 kts | 173° |
| 2026-04-26 16:09 | 46.03322 | 17.30442 | 37042 ft | 425 kts | 170° |
| 2026-04-26 16:09 | 46.00370 | 17.31074 | 36592 ft | 439 kts | 167° |
| 2026-04-26 16:10 | 45.97271 | 17.31993 | 35614 ft | 467 kts | 162° |
| 2026-04-26 16:10 | 45.94127 | 17.33279 | 35790 ft | 463 kts | 157° |
| 2026-04-26 16:10 | 45.91138 | 17.34859 | 36295 ft | 455 kts | 155° |
| 2026-04-26 16:11 | 45.85469 | 17.39200 | 35699 ft | 476 kts | 144° |
| 2026-04-26 16:11 | 45.82729 | 17.41897 | 35565 ft | 480 kts | 140° |
| 2026-04-26 16:11 | 45.80125 | 17.44919 | 35566 ft | 482 kts | 130° |
| 2026-04-26 16:11 | 45.78202 | 17.48790 | 35906 ft | 476 kts | 112° |
| 2026-04-26 16:12 | 45.76549 | 17.52874 | 36163 ft | 470 kts | 118° |
| 2026-04-26 16:12 | 45.74656 | 17.56631 | 36450 ft | 464 kts | 130° |
| 2026-04-26 16:12 | 45.70122 | 17.62930 | 37138 ft | 453 kts | 142° |
| 2026-04-26 16:13 | 45.67502 | 17.65435 | 37137 ft | 455 kts | 155° |
| 2026-04-26 16:13 | 45.64645 | 17.67418 | 37135 ft | 460 kts | 156° |
| 2026-04-26 16:13 | 45.58992 | 17.71954 | 37142 ft | 473 kts | 148° |
| 2026-04-26 16:14 | 45.53528 | 17.77367 | 37138 ft | 482 kts | 145° |
| 2026-04-26 16:15 | 45.45360 | 17.85858 | 37138 ft | 484 kts | 145° |
| 2026-04-26 16:15 | 45.39907 | 17.91495 | 37137 ft | 485 kts | 145° |
| 2026-04-26 16:16 | 45.31716 | 17.99918 | 37135 ft | 484 kts | 145° |
| 2026-04-26 16:16 | 45.26250 | 18.05522 | 37133 ft | 484 kts | 145° |
| 2026-04-26 16:17 | 45.20786 | 18.11110 | 37135 ft | 484 kts | 145° |
| 2026-04-26 16:17 | 45.15323 | 18.16683 | 37135 ft | 484 kts | 146° |
| 2026-04-26 16:18 | 45.08044 | 18.24088 | 37133 ft | 484 kts | 146° |
| 2026-04-26 16:19 | 44.98941 | 18.33317 | 37135 ft | 484 kts | 146° |
| 2026-04-26 16:20 | 44.91650 | 18.40682 | 37135 ft | 484 kts | 146° |
| 2026-04-26 16:20 | 44.86140 | 18.46232 | 37018 ft | 481 kts | 146° |
| 2026-04-26 16:20 | 44.83418 | 18.48969 | 36567 ft | 480 kts | 146° |
| 2026-04-26 16:21 | 44.80704 | 18.51694 | 35969 ft | 479 kts | 146° |
| 2026-04-26 16:21 | 44.77988 | 18.54418 | 35360 ft | 478 kts | 145° |
| 2026-04-26 16:21 | 44.75278 | 18.57132 | 34644 ft | 478 kts | 145° |
| 2026-04-26 16:21 | 44.72567 | 18.59846 | 33899 ft | 479 kts | 145° |
| 2026-04-26 16:22 | 44.69882 | 18.62529 | 33084 ft | 479 kts | 145° |
| 2026-04-26 16:22 | 44.67175 | 18.65233 | 32403 ft | 477 kts | 145° |
| 2026-04-26 16:22 | 44.64474 | 18.67928 | 31844 ft | 474 kts | 146° |
| 2026-04-26 16:22 | 44.61792 | 18.70601 | 31346 ft | 470 kts | 146° |
| 2026-04-26 16:23 | 44.59149 | 18.73230 | 31153 ft | 463 kts | 146° |
| 2026-04-26 16:23 | 44.56510 | 18.75850 | 31131 ft | 467 kts | 145° |
| 2026-04-26 16:23 | 44.51183 | 18.81135 | 31125 ft | 470 kts | 146° |
| 2026-04-26 16:24 | 44.45852 | 18.86412 | 31124 ft | 468 kts | 146° |
| 2026-04-26 16:24 | 44.40509 | 18.91690 | 31123 ft | 469 kts | 146° |
| 2026-04-26 16:25 | 44.35176 | 18.96945 | 31126 ft | 472 kts | 146° |
| 2026-04-26 16:25 | 44.29815 | 19.02214 | 31120 ft | 469 kts | 145° |
| 2026-04-26 16:26 | 44.24489 | 19.07439 | 31123 ft | 468 kts | 145° |
| 2026-04-26 16:26 | 44.19132 | 19.12683 | 31123 ft | 473 kts | 146° |
| 2026-04-26 16:27 | 44.13790 | 19.17960 | 31113 ft | 469 kts | 142° |
| 2026-04-26 16:27 | 44.08938 | 19.24131 | 31123 ft | 477 kts | 137° |
| 2026-04-26 16:28 | 44.04146 | 19.30411 | 31124 ft | 471 kts | 137° |
| 2026-04-26 16:28 | 43.99357 | 19.36639 | 31119 ft | 471 kts | 137° |
| 2026-04-26 16:29 | 43.94553 | 19.42862 | 31120 ft | 473 kts | 137° |
| 2026-04-26 16:29 | 43.89731 | 19.49095 | 31124 ft | 480 kts | 137° |
| 2026-04-26 16:30 | 43.84901 | 19.55317 | 31120 ft | 469 kts | 137° |
| 2026-04-26 16:30 | 43.80099 | 19.61493 | 31154 ft | 473 kts | 137° |
| 2026-04-26 16:31 | 43.77678 | 19.64603 | 31439 ft | 475 kts | 137° |
| 2026-04-26 16:31 | 43.75248 | 19.67719 | 31733 ft | 476 kts | 137° |
| 2026-04-26 16:31 | 43.72849 | 19.70793 | 31984 ft | 479 kts | 137° |
| 2026-04-26 16:31 | 43.70401 | 19.73925 | 32264 ft | 480 kts | 137° |
| 2026-04-26 16:32 | 43.67935 | 19.77075 | 32449 ft | 484 kts | 137° |
| 2026-04-26 16:32 | 43.66269 | 19.79203 | 32691 ft | 483 kts | 137° |
| 2026-04-26 16:32 | 43.62985 | 19.83392 | 32953 ft | 486 kts | 137° |
| 2026-04-26 16:32 | 43.60500 | 19.86556 | 33179 ft | 487 kts | 137° |
| 2026-04-26 16:33 | 43.55493 | 19.92923 | 33466 ft | 491 kts | 138° |
| 2026-04-26 16:33 | 43.52983 | 19.96108 | 33607 ft | 492 kts | 138° |
| 2026-04-26 16:33 | 43.50459 | 19.99306 | 33746 ft | 493 kts | 138° |
| 2026-04-26 16:34 | 43.47932 | 20.02505 | 33902 ft | 493 kts | 138° |
| 2026-04-26 16:34 | 43.45406 | 20.05700 | 34114 ft | 493 kts | 138° |
| 2026-04-26 16:34 | 43.42885 | 20.08884 | 34307 ft | 492 kts | 138° |
| 2026-04-26 16:34 | 43.40366 | 20.12062 | 34455 ft | 492 kts | 138° |
| 2026-04-26 16:35 | 43.37845 | 20.15239 | 34630 ft | 491 kts | 138° |
| 2026-04-26 16:35 | 43.35327 | 20.18408 | 34771 ft | 491 kts | 138° |
| 2026-04-26 16:35 | 43.32805 | 20.21580 | 34924 ft | 491 kts | 138° |
| 2026-04-26 16:35 | 43.30286 | 20.24742 | 35081 ft | 491 kts | 138° |
| 2026-04-26 16:36 | 43.27765 | 20.27902 | 35237 ft | 491 kts | 138° |
| 2026-04-26 16:36 | 43.25243 | 20.31062 | 35398 ft | 491 kts | 139° |
| 2026-04-26 16:36 | 43.22719 | 20.34219 | 35549 ft | 491 kts | 139° |
| 2026-04-26 16:36 | 43.20198 | 20.37370 | 35691 ft | 491 kts | 139° |
| 2026-04-26 16:37 | 43.17676 | 20.40518 | 35847 ft | 490 kts | 139° |
| 2026-04-26 16:37 | 43.15154 | 20.43663 | 35994 ft | 490 kts | 139° |
| 2026-04-26 16:37 | 43.12634 | 20.46801 | 36132 ft | 489 kts | 139° |
| 2026-04-26 16:37 | 43.10971 | 20.48870 | 36265 ft | 489 kts | 139° |
| 2026-04-26 16:38 | 43.07602 | 20.53057 | 36399 ft | 489 kts | 139° |
| 2026-04-26 16:38 | 43.05080 | 20.56187 | 36555 ft | 489 kts | 139° |
| 2026-04-26 16:38 | 43.02562 | 20.59309 | 36689 ft | 489 kts | 139° |
| 2026-04-26 16:38 | 43.00044 | 20.62429 | 36830 ft | 489 kts | 139° |
| 2026-04-26 16:39 | 42.97556 | 20.65593 | 37010 ft | 488 kts | 137° |
| 2026-04-26 16:39 | 42.95116 | 20.68806 | 37135 ft | 488 kts | 137° |
| 2026-04-26 16:39 | 42.92681 | 20.72030 | 37236 ft | 488 kts | 137° |
| 2026-04-26 16:39 | 42.90237 | 20.75253 | 37376 ft | 488 kts | 137° |
| 2026-04-26 16:40 | 42.87793 | 20.78457 | 37492 ft | 488 kts | 137° |
| 2026-04-26 16:40 | 42.85343 | 20.81656 | 37609 ft | 488 kts | 137° |
| 2026-04-26 16:40 | 42.80435 | 20.88039 | 37810 ft | 488 kts | 137° |
| 2026-04-26 16:41 | 42.77974 | 20.91234 | 37936 ft | 488 kts | 137° |
| 2026-04-26 16:41 | 42.75519 | 20.94418 | 38055 ft | 488 kts | 137° |
| 2026-04-26 16:41 | 42.73060 | 20.97603 | 38167 ft | 488 kts | 138° |
| 2026-04-26 16:41 | 42.70601 | 21.00784 | 38267 ft | 488 kts | 138° |
| 2026-04-26 16:42 | 42.68145 | 21.03959 | 38369 ft | 487 kts | 138° |
| 2026-04-26 16:42 | 42.65690 | 21.07128 | 38498 ft | 487 kts | 138° |
| 2026-04-26 16:42 | 42.63234 | 21.10294 | 38614 ft | 487 kts | 138° |
| 2026-04-26 16:42 | 42.60774 | 21.13464 | 38649 ft | 488 kts | 138° |
| 2026-04-26 16:43 | 42.55837 | 21.19812 | 38805 ft | 489 kts | 138° |
| 2026-04-26 16:43 | 42.50892 | 21.26156 | 38969 ft | 489 kts | 138° |
| 2026-04-26 16:44 | 42.45976 | 21.32446 | 39113 ft | 490 kts | 138° |
| 2026-04-26 16:44 | 42.40991 | 21.38812 | 39259 ft | 490 kts | 138° |
| 2026-04-26 16:45 | 42.36060 | 21.45094 | 39384 ft | 490 kts | 139° |
| 2026-04-26 16:45 | 42.31091 | 21.51412 | 39508 ft | 491 kts | 139° |
| 2026-04-26 16:46 | 42.26110 | 21.57727 | 39626 ft | 491 kts | 139° |
| 2026-04-26 16:46 | 42.21133 | 21.64056 | 39763 ft | 492 kts | 137° |
| 2026-04-26 16:47 | 42.16271 | 21.70523 | 39895 ft | 491 kts | 139° |
| 2026-04-26 16:47 | 42.10984 | 21.76334 | 39979 ft | 490 kts | 143° |
| 2026-04-26 16:48 | 42.05620 | 21.82015 | 40070 ft | 491 kts | 144° |
| 2026-04-26 16:48 | 42.00215 | 21.87655 | 40180 ft | 492 kts | 144° |
| 2026-04-26 16:49 | 41.94800 | 21.93274 | 40303 ft | 492 kts | 144° |
| 2026-04-26 16:49 | 41.89382 | 21.98883 | 40421 ft | 492 kts | 144° |
| 2026-04-26 16:50 | 41.83957 | 22.04489 | 40498 ft | 492 kts | 144° |
| 2026-04-26 16:50 | 41.78526 | 22.10087 | 40586 ft | 492 kts | 144° |
| 2026-04-26 16:51 | 41.73090 | 22.15679 | 40683 ft | 493 kts | 144° |
| 2026-04-26 16:51 | 41.67646 | 22.21268 | 40797 ft | 493 kts | 144° |
| 2026-04-26 16:52 | 41.63113 | 22.25911 | 40883 ft | 493 kts | 144° |
| 2026-04-26 16:52 | 41.56741 | 22.32422 | 40960 ft | 493 kts | 144° |
| 2026-04-26 16:53 | 41.51285 | 22.37981 | 40996 ft | 493 kts | 144° |
| 2026-04-26 16:53 | 41.45825 | 22.43529 | 41000 ft | 494 kts | 144° |
| 2026-04-26 16:54 | 41.40357 | 22.49073 | 40994 ft | 494 kts | 144° |
| 2026-04-26 16:54 | 41.34885 | 22.54610 | 41002 ft | 494 kts | 144° |
| 2026-04-26 16:55 | 41.29450 | 22.60096 | 40999 ft | 494 kts | 144° |
| 2026-04-26 16:55 | 41.23933 | 22.65654 | 41003 ft | 494 kts | 144° |
| 2026-04-26 16:56 | 41.15731 | 22.73894 | 40987 ft | 494 kts | 145° |
| 2026-04-26 16:57 | 41.10255 | 22.79381 | 40975 ft | 493 kts | 145° |
| 2026-04-26 16:57 | 41.02026 | 22.87603 | 40972 ft | 494 kts | 145° |
| 2026-04-26 16:58 | 40.98352 | 22.91267 | 40960 ft | 494 kts | 145° |
| 2026-04-26 16:59 | 40.88288 | 23.01273 | 40971 ft | 494 kts | 145° |
| 2026-04-26 17:00 | 40.77290 | 23.12164 | 40964 ft | 494 kts | 145° |
| 2026-04-26 17:00 | 40.69018 | 23.20325 | 40970 ft | 495 kts | 145° |
| 2026-04-26 17:01 | 40.63504 | 23.25751 | 40971 ft | 495 kts | 145° |
| 2026-04-26 17:01 | 40.57986 | 23.31170 | 40972 ft | 494 kts | 145° |
| 2026-04-26 17:02 | 40.52477 | 23.36567 | 40977 ft | 494 kts | 145° |
| 2026-04-26 17:02 | 40.46958 | 23.41964 | 40980 ft | 494 kts | 145° |
| 2026-04-26 17:03 | 40.41431 | 23.47356 | 40978 ft | 495 kts | 145° |
| 2026-04-26 17:03 | 40.35902 | 23.52741 | 40983 ft | 495 kts | 145° |
| 2026-04-26 17:04 | 40.30365 | 23.58121 | 40984 ft | 495 kts | 145° |
| 2026-04-26 17:04 | 40.24745 | 23.63334 | 40987 ft | 494 kts | 148° |
| 2026-04-26 17:05 | 40.20034 | 23.67558 | 40990 ft | 495 kts | 147° |
| 2026-04-26 17:05 | 40.13403 | 23.73415 | 40991 ft | 495 kts | 148° |
| 2026-04-26 17:06 | 40.07674 | 23.78390 | 40997 ft | 495 kts | 148° |
| 2026-04-26 17:06 | 40.02865 | 23.82547 | 40998 ft | 495 kts | 148° |
| 2026-04-26 17:07 | 39.97122 | 23.87506 | 41004 ft | 495 kts | 148° |
| 2026-04-26 17:07 | 39.91380 | 23.92453 | 41003 ft | 495 kts | 148° |
| 2026-04-26 17:08 | 39.85671 | 23.97359 | 41005 ft | 495 kts | 148° |
| 2026-04-26 17:08 | 39.79925 | 24.02285 | 41007 ft | 495 kts | 148° |
| 2026-04-26 17:09 | 39.75107 | 24.06407 | 41005 ft | 495 kts | 148° |
| 2026-04-26 17:09 | 39.68421 | 24.12113 | 41003 ft | 495 kts | 148° |
| 2026-04-26 17:10 | 39.62667 | 24.17017 | 41003 ft | 495 kts | 148° |
| 2026-04-26 17:10 | 39.56911 | 24.21912 | 41008 ft | 495 kts | 148° |
| 2026-04-26 17:11 | 39.51147 | 24.26802 | 41008 ft | 495 kts | 148° |
| 2026-04-26 17:11 | 39.45390 | 24.31677 | 41007 ft | 495 kts | 148° |
| 2026-04-26 17:12 | 39.36740 | 24.38984 | 41005 ft | 495 kts | 148° |
| 2026-04-26 17:13 | 39.28090 | 24.46268 | 41012 ft | 495 kts | 148° |
| 2026-04-26 17:14 | 39.19436 | 24.53535 | 41012 ft | 495 kts | 148° |
| 2026-04-26 17:14 | 39.10775 | 24.60785 | 41013 ft | 495 kts | 148° |
| 2026-04-26 17:15 | 39.02110 | 24.68017 | 41014 ft | 495 kts | 148° |
| 2026-04-26 17:16 | 38.96371 | 24.72796 | 41015 ft | 495 kts | 148° |
| 2026-04-26 17:16 | 38.90588 | 24.77601 | 41017 ft | 495 kts | 148° |
| 2026-04-26 17:17 | 38.84806 | 24.82396 | 41015 ft | 495 kts | 148° |
| 2026-04-26 17:17 | 38.79020 | 24.87185 | 41016 ft | 495 kts | 148° |
| 2026-04-26 17:18 | 38.73237 | 24.91962 | 41020 ft | 495 kts | 148° |
| 2026-04-26 17:18 | 38.67455 | 24.96729 | 41022 ft | 495 kts | 148° |
| 2026-04-26 17:19 | 38.58772 | 25.03870 | 41018 ft | 494 kts | 148° |
| 2026-04-26 17:19 | 38.52985 | 25.08617 | 41021 ft | 494 kts | 148° |
| 2026-04-26 17:20 | 38.48180 | 25.12554 | 41021 ft | 494 kts | 148° |
| 2026-04-26 17:20 | 38.41420 | 25.18080 | 41017 ft | 494 kts | 148° |
| 2026-04-26 17:21 | 38.35634 | 25.22799 | 41020 ft | 494 kts | 148° |
| 2026-04-26 17:21 | 38.29845 | 25.27512 | 41010 ft | 494 kts | 148° |
| 2026-04-26 17:22 | 38.24059 | 25.32213 | 41017 ft | 493 kts | 148° |
| 2026-04-26 17:22 | 38.18272 | 25.36906 | 41019 ft | 494 kts | 148° |
| 2026-04-26 17:23 | 38.12479 | 25.41597 | 41019 ft | 494 kts | 148° |
| 2026-04-26 17:23 | 38.06688 | 25.46276 | 41019 ft | 494 kts | 148° |
| 2026-04-26 17:24 | 38.00893 | 25.50948 | 41013 ft | 493 kts | 148° |
| 2026-04-26 17:24 | 37.95135 | 25.55582 | 41012 ft | 494 kts | 148° |
| 2026-04-26 17:25 | 37.89344 | 25.60235 | 41013 ft | 494 kts | 148° |
| 2026-04-26 17:25 | 37.83532 | 25.64895 | 41016 ft | 494 kts | 148° |
| 2026-04-26 17:26 | 37.77723 | 25.69542 | 41013 ft | 494 kts | 148° |
| 2026-04-26 17:26 | 37.71919 | 25.74180 | 41013 ft | 494 kts | 148° |
| 2026-04-26 17:27 | 37.66109 | 25.78813 | 41010 ft | 494 kts | 148° |
| 2026-04-26 17:27 | 37.60302 | 25.83434 | 41009 ft | 494 kts | 148° |
| 2026-04-26 17:28 | 37.54487 | 25.88054 | 41008 ft | 494 kts | 148° |
| 2026-04-26 17:28 | 37.48673 | 25.92663 | 41006 ft | 494 kts | 148° |
| 2026-04-26 17:29 | 37.43802 | 25.96519 | 40999 ft | 494 kts | 148° |
| 2026-04-26 17:29 | 37.37033 | 26.01866 | 41003 ft | 494 kts | 148° |
| 2026-04-26 17:30 | 37.31208 | 26.06459 | 41001 ft | 494 kts | 148° |
| 2026-04-26 17:30 | 37.25379 | 26.11047 | 41003 ft | 495 kts | 148° |
| 2026-04-26 17:31 | 37.19548 | 26.15628 | 40995 ft | 495 kts | 148° |
| 2026-04-26 17:31 | 37.13708 | 26.20207 | 40996 ft | 495 kts | 148° |
| 2026-04-26 17:32 | 37.07866 | 26.24779 | 41002 ft | 495 kts | 149° |
| 2026-04-26 17:32 | 37.02014 | 26.29350 | 40995 ft | 496 kts | 148° |
| 2026-04-26 17:33 | 36.96163 | 26.33913 | 40987 ft | 496 kts | 149° |
| 2026-04-26 17:34 | 36.87406 | 26.40725 | 40991 ft | 497 kts | 149° |
| 2026-04-26 17:34 | 36.81535 | 26.45282 | 40995 ft | 497 kts | 149° |
| 2026-04-26 17:35 | 36.75653 | 26.49840 | 41000 ft | 498 kts | 149° |
| 2026-04-26 17:35 | 36.69770 | 26.54390 | 40993 ft | 498 kts | 149° |
| 2026-04-26 17:36 | 36.63878 | 26.58938 | 40997 ft | 498 kts | 149° |
| 2026-04-26 17:36 | 36.57981 | 26.63482 | 40999 ft | 499 kts | 149° |
| 2026-04-26 17:37 | 36.52079 | 26.68022 | 40997 ft | 499 kts | 149° |
| 2026-04-26 17:37 | 36.46180 | 26.72550 | 40998 ft | 499 kts | 149° |
| 2026-04-26 17:38 | 36.37309 | 26.79347 | 40993 ft | 499 kts | 149° |
| 2026-04-26 17:38 | 36.31392 | 26.83869 | 40995 ft | 500 kts | 149° |
| 2026-04-26 17:39 | 36.25473 | 26.88384 | 41002 ft | 500 kts | 149° |
| 2026-04-26 17:39 | 36.19550 | 26.92894 | 41003 ft | 499 kts | 149° |
| 2026-04-26 17:40 | 36.15623 | 26.95881 | 40990 ft | 499 kts | 149° |
| 2026-04-26 17:40 | 36.07703 | 27.01893 | 41013 ft | 499 kts | 149° |
| 2026-04-26 17:41 | 36.01779 | 27.06380 | 41012 ft | 499 kts | 149° |
| 2026-04-26 17:41 | 35.95849 | 27.10863 | 41011 ft | 499 kts | 149° |
| 2026-04-26 17:42 | 35.89922 | 27.15337 | 41011 ft | 500 kts | 149° |
| 2026-04-26 17:42 | 35.83983 | 27.19811 | 40988 ft | 500 kts | 149° |
| 2026-04-26 17:43 | 35.78072 | 27.24257 | 40981 ft | 502 kts | 149° |
| 2026-04-26 17:43 | 35.72109 | 27.28734 | 40983 ft | 502 kts | 149° |
| 2026-04-26 17:44 | 35.66138 | 27.33208 | 40971 ft | 503 kts | 149° |
| 2026-04-26 17:44 | 35.60164 | 27.37677 | 40956 ft | 503 kts | 150° |
| 2026-04-26 17:45 | 35.54182 | 27.42144 | 40962 ft | 504 kts | 150° |
| 2026-04-26 17:45 | 35.48189 | 27.46611 | 40966 ft | 504 kts | 150° |
| 2026-04-26 17:46 | 35.42191 | 27.51074 | 40969 ft | 504 kts | 150° |
| 2026-04-26 17:46 | 35.36199 | 27.55525 | 40971 ft | 504 kts | 150° |
| 2026-04-26 17:47 | 35.32222 | 27.58476 | 40995 ft | 504 kts | 150° |
| 2026-04-26 17:47 | 35.24195 | 27.64419 | 40984 ft | 503 kts | 150° |
| 2026-04-26 17:48 | 35.18202 | 27.68846 | 40980 ft | 503 kts | 150° |
| 2026-04-26 17:48 | 35.12208 | 27.73268 | 40971 ft | 503 kts | 150° |
| 2026-04-26 17:49 | 35.06212 | 27.77683 | 40966 ft | 503 kts | 150° |
| 2026-04-26 17:49 | 35.00261 | 27.82057 | 40967 ft | 503 kts | 150° |
| 2026-04-26 17:50 | 34.94263 | 27.86458 | 40969 ft | 503 kts | 150° |
| 2026-04-26 17:50 | 34.88269 | 27.90849 | 40974 ft | 503 kts | 150° |
| 2026-04-26 17:51 | 34.82270 | 27.95236 | 40977 ft | 503 kts | 150° |
| 2026-04-26 17:51 | 34.76270 | 27.99617 | 40970 ft | 503 kts | 151° |
| 2026-04-26 17:52 | 34.70267 | 28.03993 | 40972 ft | 503 kts | 151° |
| 2026-04-26 17:52 | 34.64266 | 28.08359 | 40978 ft | 503 kts | 151° |
| 2026-04-26 17:53 | 34.58270 | 28.12714 | 40965 ft | 502 kts | 151° |
| 2026-04-26 17:54 | 34.49277 | 28.19232 | 40949 ft | 502 kts | 152° |
| 2026-04-26 17:54 | 34.43318 | 28.23542 | 40957 ft | 502 kts | 152° |
| 2026-04-26 17:55 | 34.37316 | 28.27875 | 40961 ft | 503 kts | 152° |
| 2026-04-26 17:55 | 34.31306 | 28.32207 | 40956 ft | 503 kts | 152° |
| 2026-04-26 17:56 | 34.25289 | 28.36536 | 40961 ft | 503 kts | 152° |
| 2026-04-26 17:57 | 34.14284 | 28.44438 | 40963 ft | 502 kts | 152° |
| 2026-04-26 17:57 | 34.08274 | 28.48741 | 40962 ft | 502 kts | 152° |
| 2026-04-26 17:58 | 33.96249 | 28.57333 | 40962 ft | 502 kts | 152° |
| 2026-04-26 17:59 | 33.87231 | 28.63763 | 40958 ft | 502 kts | 153° |
| 2026-04-26 17:59 | 33.81217 | 28.68043 | 40967 ft | 502 kts | 153° |
| 2026-04-26 18:00 | 33.75209 | 28.72313 | 40967 ft | 501 kts | 153° |
| 2026-04-26 18:00 | 33.69396 | 28.76957 | 40960 ft | 505 kts | 143° |
| 2026-04-26 18:01 | 33.64023 | 28.82404 | 40944 ft | 504 kts | 144° |
| 2026-04-26 18:01 | 33.58703 | 28.87919 | 40946 ft | 506 kts | 142° |
| 2026-04-26 18:02 | 33.54243 | 28.92554 | 40945 ft | 506 kts | 143° |
| 2026-04-26 18:02 | 33.49182 | 28.97714 | 40959 ft | 506 kts | 143° |
| 2026-04-26 18:03 | 33.46582 | 29.00346 | 40962 ft | 506 kts | 143° |
| 2026-04-26 18:03 | 33.41192 | 29.05781 | 40961 ft | 506 kts | 143° |
| 2026-04-26 18:04 | 33.35803 | 29.11207 | 40960 ft | 506 kts | 143° |
| 2026-04-26 18:05 | 33.27694 | 29.19359 | 40957 ft | 510 kts | 144° |
| 2026-04-26 18:05 | 33.22249 | 29.24821 | 40956 ft | 512 kts | 144° |
| 2026-04-26 18:06 | 33.16802 | 29.30280 | 40951 ft | 511 kts | 144° |
| 2026-04-26 18:06 | 33.11356 | 29.35725 | 40957 ft | 511 kts | 144° |
| 2026-04-26 18:07 | 33.05940 | 29.41131 | 40951 ft | 511 kts | 145° |
| 2026-04-26 18:07 | 33.00488 | 29.46569 | 40927 ft | 511 kts | 145° |
| 2026-04-26 18:08 | 32.95021 | 29.52006 | 40933 ft | 513 kts | 146° |
| 2026-04-26 18:08 | 32.89540 | 29.57448 | 40945 ft | 514 kts | 146° |
| 2026-04-26 18:09 | 32.84051 | 29.62890 | 40950 ft | 514 kts | 146° |
| 2026-04-26 18:09 | 32.78557 | 29.68330 | 40953 ft | 514 kts | 146° |
| 2026-04-26 18:10 | 32.73055 | 29.73767 | 40955 ft | 515 kts | 146° |
| 2026-04-26 18:10 | 32.67547 | 29.79201 | 40940 ft | 515 kts | 146° |
| 2026-04-26 18:11 | 32.62024 | 29.84641 | 40946 ft | 516 kts | 146° |
| 2026-04-26 18:11 | 32.56497 | 29.90075 | 40962 ft | 516 kts | 146° |
| 2026-04-26 18:12 | 32.50960 | 29.95510 | 40970 ft | 518 kts | 146° |
| 2026-04-26 18:12 | 32.45410 | 30.00950 | 40960 ft | 517 kts | 146° |
| 2026-04-26 18:13 | 32.39874 | 30.06368 | 40957 ft | 516 kts | 146° |
| 2026-04-26 18:13 | 32.34339 | 30.11776 | 40961 ft | 516 kts | 147° |
| 2026-04-26 18:14 | 32.28809 | 30.17170 | 40965 ft | 515 kts | 147° |
| 2026-04-26 18:14 | 32.23278 | 30.22554 | 40965 ft | 515 kts | 147° |
| 2026-04-26 18:15 | 32.17745 | 30.27933 | 40967 ft | 515 kts | 147° |
| 2026-04-26 18:15 | 32.12212 | 30.33304 | 40976 ft | 515 kts | 147° |
| 2026-04-26 18:16 | 32.06670 | 30.38674 | 40974 ft | 515 kts | 147° |
| 2026-04-26 18:16 | 31.98369 | 30.46705 | 40974 ft | 515 kts | 148° |
| 2026-04-26 18:17 | 31.92858 | 30.52020 | 40974 ft | 515 kts | 148° |
| 2026-04-26 18:17 | 31.87279 | 30.57396 | 40974 ft | 515 kts | 148° |
| 2026-04-26 18:18 | 31.81773 | 30.62691 | 40970 ft | 515 kts | 148° |
| 2026-04-26 18:18 | 31.76225 | 30.68018 | 40944 ft | 515 kts | 148° |
| 2026-04-26 18:19 | 31.70678 | 30.73336 | 40958 ft | 515 kts | 148° |
| 2026-04-26 18:19 | 31.65120 | 30.78657 | 40964 ft | 515 kts | 148° |
| 2026-04-26 18:20 | 31.59560 | 30.83972 | 40966 ft | 516 kts | 148° |
| 2026-04-26 18:20 | 31.54931 | 30.88390 | 40968 ft | 516 kts | 148° |
| 2026-04-26 18:21 | 31.48420 | 30.94595 | 40973 ft | 516 kts | 148° |
| 2026-04-26 18:21 | 31.42849 | 30.99899 | 40978 ft | 515 kts | 149° |
| 2026-04-26 18:22 | 31.37284 | 31.05184 | 40972 ft | 515 kts | 149° |
| 2026-04-26 18:22 | 31.31716 | 31.10464 | 40974 ft | 515 kts | 149° |
| 2026-04-26 18:23 | 31.25914 | 31.15220 | 40970 ft | 502 kts | 160° |
| 2026-04-26 18:23 | 31.19597 | 31.18260 | 40972 ft | 485 kts | 173° |
| 2026-04-26 18:24 | 31.13071 | 31.19715 | 40968 ft | 473 kts | 181° |
| 2026-04-26 18:24 | 31.06563 | 31.20904 | 40973 ft | 473 kts | 180° |
| 2026-04-26 18:25 | 31.00098 | 31.22108 | 40977 ft | 474 kts | 180° |
| 2026-04-26 18:25 | 30.93594 | 31.23317 | 40974 ft | 474 kts | 180° |
| 2026-04-26 18:26 | 30.87089 | 31.24524 | 40947 ft | 473 kts | 181° |
| 2026-04-26 18:26 | 30.80601 | 31.25726 | 40972 ft | 472 kts | 181° |
| 2026-04-26 18:27 | 30.74119 | 31.26922 | 40972 ft | 472 kts | 181° |
| 2026-04-26 18:27 | 30.67631 | 31.28118 | 40973 ft | 472 kts | 181° |
| 2026-04-26 18:28 | 30.61145 | 31.29315 | 40957 ft | 472 kts | 181° |
| 2026-04-26 18:28 | 30.54668 | 31.30507 | 40951 ft | 472 kts | 181° |
| 2026-04-26 18:29 | 30.48183 | 31.31698 | 40948 ft | 472 kts | 181° |
| 2026-04-26 18:29 | 30.41700 | 31.32889 | 40950 ft | 472 kts | 181° |
| 2026-04-26 18:30 | 30.35224 | 31.34081 | 40952 ft | 471 kts | 181° |
| 2026-04-26 18:30 | 30.28748 | 31.35268 | 40953 ft | 471 kts | 181° |
| 2026-04-26 18:31 | 30.22267 | 31.36455 | 40959 ft | 471 kts | 181° |
| 2026-04-26 18:31 | 30.15787 | 31.37672 | 40961 ft | 475 kts | 179° |
| 2026-04-26 18:32 | 30.09370 | 31.39965 | 40960 ft | 493 kts | 167° |
| 2026-04-26 18:32 | 30.03273 | 31.43869 | 40967 ft | 512 kts | 154° |
| 2026-04-26 18:33 | 29.97540 | 31.48819 | 40969 ft | 515 kts | 153° |
| 2026-04-26 18:33 | 29.91795 | 31.53742 | 40965 ft | 514 kts | 153° |
| 2026-04-26 18:34 | 29.86043 | 31.58640 | 40982 ft | 514 kts | 153° |
| 2026-04-26 18:34 | 29.80291 | 31.63530 | 40982 ft | 514 kts | 153° |
| 2026-04-26 18:35 | 29.74534 | 31.68418 | 40992 ft | 514 kts | 153° |
| 2026-04-26 18:35 | 29.68777 | 31.73299 | 40990 ft | 514 kts | 153° |
| 2026-04-26 18:36 | 29.63018 | 31.78176 | 41001 ft | 514 kts | 153° |
| 2026-04-26 18:36 | 29.57257 | 31.83050 | 40993 ft | 514 kts | 153° |
| 2026-04-26 18:37 | 29.51506 | 31.87906 | 40994 ft | 513 kts | 153° |
| 2026-04-26 18:37 | 29.45802 | 31.92719 | 41013 ft | 511 kts | 153° |
| 2026-04-26 18:38 | 29.40077 | 31.97537 | 41008 ft | 510 kts | 153° |
| 2026-04-26 18:38 | 29.34332 | 32.02362 | 41010 ft | 513 kts | 153° |
| 2026-04-26 18:39 | 29.28567 | 32.07202 | 41010 ft | 513 kts | 153° |
| 2026-04-26 18:39 | 29.22842 | 32.12010 | 41013 ft | 509 kts | 154° |
| 2026-04-26 18:40 | 29.17112 | 32.16801 | 41017 ft | 512 kts | 154° |
| 2026-04-26 18:40 | 29.11351 | 32.21613 | 41017 ft | 514 kts | 154° |
| 2026-04-26 18:41 | 29.05573 | 32.26438 | 41016 ft | 515 kts | 154° |
| 2026-04-26 18:41 | 28.99783 | 32.31264 | 41010 ft | 516 kts | 154° |
| 2026-04-26 18:42 | 28.93980 | 32.36094 | 41010 ft | 516 kts | 154° |
| 2026-04-26 18:42 | 28.88168 | 32.40925 | 41007 ft | 518 kts | 154° |
| 2026-04-26 18:43 | 28.83332 | 32.44942 | 41014 ft | 517 kts | 155° |
| 2026-04-26 18:43 | 28.77501 | 32.49771 | 40991 ft | 518 kts | 154° |
| 2026-04-26 18:44 | 28.71666 | 32.54604 | 40992 ft | 518 kts | 154° |
| 2026-04-26 18:44 | 28.65834 | 32.59427 | 40992 ft | 518 kts | 154° |
| 2026-04-26 18:45 | 28.60004 | 32.64238 | 40974 ft | 517 kts | 154° |
| 2026-04-26 18:45 | 28.54179 | 32.69041 | 40971 ft | 517 kts | 154° |
| 2026-04-26 18:46 | 28.48352 | 32.73837 | 40956 ft | 517 kts | 154° |
| 2026-04-26 18:46 | 28.42519 | 32.78632 | 40958 ft | 518 kts | 154° |
| 2026-04-26 18:47 | 28.36678 | 32.83427 | 40962 ft | 518 kts | 154° |
| 2026-04-26 18:47 | 28.30848 | 32.88209 | 40800 ft | 515 kts | 155° |
| 2026-04-26 18:48 | 28.27942 | 32.90589 | 40217 ft | 516 kts | 154° |
| 2026-04-26 18:48 | 28.25026 | 32.92970 | 39438 ft | 519 kts | 154° |
| 2026-04-26 18:48 | 28.22083 | 32.95375 | 38532 ft | 523 kts | 155° |
| 2026-04-26 18:48 | 28.19120 | 32.97795 | 37546 ft | 525 kts | 155° |
| 2026-04-26 18:49 | 28.16163 | 33.00212 | 36702 ft | 524 kts | 155° |
| 2026-04-26 18:49 | 28.13211 | 33.02624 | 35856 ft | 523 kts | 155° |
| 2026-04-26 18:49 | 28.10264 | 33.05029 | 34998 ft | 522 kts | 155° |
| 2026-04-26 18:49 | 28.07320 | 33.07429 | 34116 ft | 521 kts | 155° |
| 2026-04-26 18:50 | 28.04378 | 33.09825 | 33107 ft | 520 kts | 154° |
| 2026-04-26 18:50 | 28.01445 | 33.12209 | 32109 ft | 518 kts | 154° |
| 2026-04-26 18:50 | 27.98525 | 33.14582 | 31239 ft | 514 kts | 153° |
| 2026-04-26 18:50 | 27.95655 | 33.16918 | 30658 ft | 505 kts | 153° |
| 2026-04-26 18:51 | 27.92825 | 33.19219 | 30115 ft | 498 kts | 153° |
| 2026-04-26 18:51 | 27.90026 | 33.21490 | 29417 ft | 493 kts | 152° |
| 2026-04-26 18:51 | 27.87250 | 33.23740 | 28720 ft | 489 kts | 152° |
| 2026-04-26 18:51 | 27.84496 | 33.25971 | 28087 ft | 484 kts | 152° |
| 2026-04-26 18:52 | 27.81772 | 33.28177 | 27433 ft | 480 kts | 152° |
| 2026-04-26 18:52 | 27.79064 | 33.30367 | 26782 ft | 477 kts | 152° |
| 2026-04-26 18:52 | 27.76376 | 33.32540 | 26169 ft | 473 kts | 152° |
| 2026-04-26 18:52 | 27.73711 | 33.34698 | 25371 ft | 473 kts | 152° |
| 2026-04-26 18:53 | 27.71016 | 33.36868 | 24300 ft | 480 kts | 152° |
| 2026-04-26 18:53 | 27.68269 | 33.39074 | 23059 ft | 489 kts | 151° |
| 2026-04-26 18:53 | 27.65504 | 33.41306 | 22299 ft | 485 kts | 151° |
| 2026-04-26 18:53 | 27.62813 | 33.43491 | 22037 ft | 468 kts | 151° |
| 2026-04-26 18:54 | 27.60209 | 33.45602 | 21622 ft | 456 kts | 151° |
| 2026-04-26 18:54 | 27.57647 | 33.47667 | 20970 ft | 450 kts | 151° |
| 2026-04-26 18:54 | 27.55118 | 33.49713 | 20253 ft | 446 kts | 147° |
| 2026-04-26 18:54 | 27.52608 | 33.51795 | 19251 ft | 446 kts | 149° |
| 2026-04-26 18:55 | 27.49979 | 33.53486 | 18886 ft | 425 kts | 161° |
| 2026-04-26 18:55 | 27.47302 | 33.54781 | 18305 ft | 415 kts | 163° |
| 2026-04-26 18:55 | 27.44660 | 33.56052 | 17570 ft | 411 kts | 162° |
| 2026-04-26 18:55 | 27.42053 | 33.57321 | 16796 ft | 406 kts | 162° |
| 2026-04-26 18:56 | 27.39473 | 33.58572 | 16050 ft | 401 kts | 162° |
| 2026-04-26 18:56 | 27.36913 | 33.59798 | 15304 ft | 397 kts | 162° |
| 2026-04-26 18:56 | 27.34342 | 33.60833 | 14544 ft | 388 kts | 169° |
| 2026-04-26 18:56 | 27.31744 | 33.61574 | 13825 ft | 383 kts | 171° |
| 2026-04-26 18:57 | 27.29169 | 33.62303 | 12999 ft | 380 kts | 171° |
| 2026-04-26 18:57 | 27.27478 | 33.62789 | 12503 ft | 377 kts | 170° |
| 2026-04-26 18:57 | 27.24112 | 33.63773 | 11638 ft | 368 kts | 170° |
| 2026-04-26 18:57 | 27.21640 | 33.64503 | 10823 ft | 367 kts | 170° |
| 2026-04-26 18:58 | 27.19175 | 33.65230 | 10073 ft | 364 kts | 169° |
| 2026-04-26 18:58 | 27.16736 | 33.65950 | 9403 ft | 359 kts | 169° |
| 2026-04-26 18:58 | 27.14409 | 33.66640 | 9128 ft | 333 kts | 169° |
| 2026-04-26 18:58 | 27.12241 | 33.67282 | 8802 ft | 311 kts | 169° |
| 2026-04-26 18:59 | 27.10231 | 33.67876 | 8570 ft | 287 kts | 169° |
| 2026-04-26 18:59 | 27.08375 | 33.68423 | 8355 ft | 265 kts | 170° |
| 2026-04-26 18:59 | 27.06621 | 33.68935 | 7828 ft | 257 kts | 170° |
| 2026-04-26 18:59 | 27.04909 | 33.69429 | 7514 ft | 261 kts | 170° |
| 2026-04-26 19:00 | 27.03143 | 33.69938 | 7192 ft | 261 kts | 169° |
| 2026-04-26 19:00 | 27.01404 | 33.70448 | 6864 ft | 257 kts | 169° |
| 2026-04-26 19:00 | 26.99667 | 33.70957 | 6579 ft | 258 kts | 169° |
| 2026-04-26 19:00 | 26.97938 | 33.71465 | 6296 ft | 256 kts | 168° |
| 2026-04-26 19:01 | 26.96280 | 33.72191 | 6099 ft | 262 kts | 149° |
| 2026-04-26 19:01 | 26.95022 | 33.73685 | 6092 ft | 269 kts | 121° |
| 2026-04-26 19:01 | 26.94472 | 33.75684 | 6108 ft | 272 kts | 94° |
| 2026-04-26 19:01 | 26.94765 | 33.77767 | 6108 ft | 273 kts | 66° |
| 2026-04-26 19:02 | 26.95655 | 33.79635 | 6095 ft | 273 kts | 64° |
| 2026-04-26 19:02 | 26.96066 | 33.81701 | 6104 ft | 273 kts | 89° |
| 2026-04-26 19:02 | 26.95733 | 33.83775 | 6122 ft | 271 kts | 110° |
| 2026-04-26 19:02 | 26.95266 | 33.85079 | 6130 ft | 273 kts | 114° |
| 2026-04-26 19:03 | 26.94300 | 33.87678 | 6119 ft | 264 kts | 114° |
| 2026-04-26 19:03 | 26.93623 | 33.89509 | 6099 ft | 246 kts | 114° |
| 2026-04-26 19:03 | 26.92971 | 33.91286 | 6113 ft | 250 kts | 114° |
| 2026-04-26 19:03 | 26.92315 | 33.93090 | 6109 ft | 249 kts | 114° |
| 2026-04-26 19:04 | 26.91665 | 33.94884 | 6106 ft | 248 kts | 114° |
| 2026-04-26 19:04 | 26.91016 | 33.96667 | 6097 ft | 246 kts | 114° |
| 2026-04-26 19:04 | 26.90377 | 33.98446 | 6096 ft | 247 kts | 114° |
| 2026-04-26 19:04 | 26.89740 | 34.00228 | 6094 ft | 246 kts | 114° |
| 2026-04-26 19:05 | 26.88494 | 34.03643 | 5874 ft | 232 kts | 122° |
| 2026-04-26 19:05 | 26.87420 | 34.04931 | 5501 ft | 225 kts | 152° |
| 2026-04-26 19:05 | 26.85962 | 34.05431 | 5087 ft | 219 kts | 183° |
| 2026-04-26 19:06 | 26.84471 | 34.05194 | 4687 ft | 217 kts | 194° |
| 2026-04-26 19:06 | 26.82985 | 34.04868 | 4294 ft | 218 kts | 194° |
| 2026-04-26 19:06 | 26.81504 | 34.04538 | 3945 ft | 217 kts | 194° |
| 2026-04-26 19:06 | 26.80024 | 34.04204 | 3661 ft | 215 kts | 195° |
| 2026-04-26 19:07 | 26.78554 | 34.03877 | 3574 ft | 218 kts | 194° |
| 2026-04-26 19:07 | 26.77063 | 34.03542 | 3558 ft | 218 kts | 194° |
| 2026-04-26 19:07 | 26.75667 | 34.02975 | 3571 ft | 212 kts | 218° |
| 2026-04-26 19:07 | 26.74746 | 34.01723 | 3567 ft | 209 kts | 250° |
| 2026-04-26 19:08 | 26.74600 | 34.00142 | 3573 ft | 207 kts | 283° |
| 2026-04-26 19:08 | 26.75273 | 33.98746 | 3561 ft | 207 kts | 316° |
| 2026-04-26 19:08 | 26.76439 | 33.97796 | 3558 ft | 208 kts | 325° |
| 2026-04-26 19:08 | 26.77636 | 33.96891 | 3573 ft | 207 kts | 324° |
| 2026-04-26 19:09 | 26.78833 | 33.95986 | 3577 ft | 208 kts | 324° |
| 2026-04-26 19:09 | 26.80093 | 33.95032 | 3569 ft | 226 kts | 324° |
| 2026-04-26 19:09 | 26.81391 | 33.94047 | 3570 ft | 226 kts | 324° |
| 2026-04-26 19:09 | 26.82697 | 33.93054 | 3560 ft | 226 kts | 324° |
| 2026-04-26 19:10 | 26.84000 | 33.92069 | 3571 ft | 226 kts | 324° |
| 2026-04-26 19:10 | 26.85307 | 33.91085 | 3582 ft | 226 kts | 325° |
| 2026-04-26 19:10 | 26.86744 | 33.90371 | 3585 ft | 228 kts | 337° |
| 2026-04-26 19:10 | 26.88050 | 33.89399 | 3597 ft | 227 kts | 319° |
| 2026-04-26 19:11 | 26.89348 | 33.88353 | 3576 ft | 231 kts | 326° |
| 2026-04-26 19:11 | 26.90742 | 33.87477 | 3571 ft | 231 kts | 339° |
| 2026-04-26 19:11 | 26.92318 | 33.87024 | 3587 ft | 235 kts | 343° |
| 2026-04-26 19:11 | 26.93889 | 33.86531 | 3597 ft | 234 kts | 342° |
| 2026-04-26 19:12 | 26.95461 | 33.86037 | 3595 ft | 233 kts | 342° |
| 2026-04-26 19:12 | 26.97015 | 33.85552 | 3583 ft | 232 kts | 342° |
| 2026-04-26 19:12 | 26.98569 | 33.85068 | 3585 ft | 232 kts | 342° |
| 2026-04-26 19:12 | 27.00124 | 33.84582 | 3597 ft | 230 kts | 342° |
| 2026-04-26 19:13 | 27.01651 | 33.84120 | 3597 ft | 231 kts | 342° |
| 2026-04-26 19:13 | 27.03198 | 33.83644 | 3594 ft | 230 kts | 342° |
| 2026-04-26 19:13 | 27.04743 | 33.83163 | 3590 ft | 230 kts | 342° |
| 2026-04-26 19:13 | 27.06281 | 33.82684 | 3595 ft | 229 kts | 342° |
| 2026-04-26 19:14 | 27.07847 | 33.82202 | 3608 ft | 231 kts | 342° |
| 2026-04-26 19:14 | 27.09348 | 33.81741 | 3177 ft | 222 kts | 338° |
| 2026-04-26 19:14 | 27.10794 | 33.81198 | 2125 ft | 219 kts | 338° |
| 2026-04-26 19:14 | 27.11281 | 33.81015 | 1760 ft | 216 kts | 339° |
| 2026-04-26 19:15 | 27.13502 | 33.80283 | 1097 ft | 176 kts | 346° |
| 2026-04-26 19:15 | 27.14751 | 33.80021 | 331 ft | 181 kts | 346° |
| 2026-04-26 19:15 | 27.15852 | 33.79716 | 240 ft | 152 kts | 338° |
| 2026-04-26 19:15 | 27.16801 | 33.79412 | 43 ft | 129 kts | 338° |
| 2026-04-26 19:16 | 27.17270 | 33.79249 | 41 ft | 28 kts | 341° |
| 2026-04-26 19:16 | 27.17370 | 33.79143 | 41 ft | 0 kts | 283° |
| 2026-04-26 19:16 | 27.17378 | 33.79105 | 42 ft | 5 kts | 279° |
| 2026-04-26 19:16 | 27.17378 | 33.79104 | 42 ft | 0 kts | 277° |
| 2026-04-26 19:17 | 27.17443 | 33.79044 | 42 ft | 0 kts | 350° |
| 2026-04-26 19:17 | 27.17509 | 33.79050 | 42 ft | 25 kts | 12° |
| 2026-04-26 19:18 | 27.17671 | 33.79104 | 41 ft | 10 kts | 21° |
| 2026-04-26 19:18 | 27.17843 | 33.79166 | 44 ft | 5 kts | 14° |
| 2026-04-26 19:18 | 27.17875 | 33.79175 | 44 ft | 0 kts | 14° |
| 2026-04-26 19:18 | 27.17897 | 33.79180 | 44 ft | 8 kts | 13° |
| 2026-04-26 19:19 | 27.17953 | 33.79191 | 45 ft | 8 kts | 9° |
| 2026-04-26 19:19 | 27.18025 | 33.79217 | 46 ft | 14 kts | 18° |
| 2026-04-26 19:19 | 27.18142 | 33.79216 | 47 ft | 20 kts | 348° |
| 2026-04-26 19:19 | 27.18293 | 33.79173 | 47 ft | 25 kts | 345° |
| 2026-04-26 19:20 | 27.18460 | 33.79125 | 49 ft | 25 kts | 346° |
| 2026-04-26 19:20 | 27.18568 | 33.79094 | 49 ft | 24 kts | 345° |
| 2026-04-26 19:20 | 27.18726 | 33.79048 | 49 ft | 7 kts | 345° |
| 2026-04-26 19:20 | 27.18774 | 33.79034 | 49 ft | 7 kts | 345° |
| 2026-04-26 19:21 | 27.18839 | 33.79014 | 47 ft | 13 kts | 345° |
| 2026-04-26 19:21 | 27.18901 | 33.78999 | 50 ft | 6 kts | 353° |
| 2026-04-26 19:21 | 27.18943 | 33.79046 | 49 ft | 10 kts | 64° |
| 2026-04-26 19:21 | 27.18967 | 33.79125 | 50 ft | 11 kts | 75° |
| 2026-04-26 19:22 | 27.18983 | 33.79213 | 50 ft | 12 kts | 77° |
| 2026-04-26 19:22 | 27.19004 | 33.79309 | 47 ft | 13 kts | 76° |
| 2026-04-26 19:22 | 27.19028 | 33.79411 | 50 ft | 14 kts | 76° |
| 2026-04-26 19:22 | 27.19053 | 33.79520 | 50 ft | 15 kts | 75° |
| 2026-04-26 19:23 | 27.19067 | 33.79579 | 51 ft | 0 kts | 75° |
| 2026-04-26 19:23 | 27.19069 | 33.79585 | 51 ft | 4 kts | 75° |
| 2026-04-26 19:23 | 27.19085 | 33.79649 | 51 ft | 12 kts | 75° |
| 2026-04-26 19:23 | 27.19100 | 33.79699 | 51 ft | 14 kts | 70° |
| 2026-04-26 19:24 | 27.19124 | 33.79811 | 51 ft | 4 kts | 77° |
| 2026-04-26 19:25 | 27.19125 | 33.79813 | 52 ft | 1 kts | 77° |
| 2026-04-26 19:26 | 27.19128 | 33.79832 | 48 ft | 4 kts | 77° |
| 2026-04-26 19:26 | 27.19119 | 33.79881 | 51 ft | 14 kts | 118° |
| 2026-04-26 19:26 | 27.19013 | 33.79938 | 46 ft | 19 kts | 173° |
| 2026-04-26 19:26 | 27.18880 | 33.79968 | 49 ft | 20 kts | 165° |
| 2026-04-26 19:27 | 27.18740 | 33.80018 | 48 ft | 22 kts | 158° |
| 2026-04-26 19:27 | 27.18588 | 33.80061 | 47 ft | 23 kts | 170° |
| 2026-04-26 19:27 | 27.18423 | 33.80100 | 46 ft | 25 kts | 166° |
| 2026-04-26 19:27 | 27.18253 | 33.80147 | 45 ft | 26 kts | 165° |
| 2026-04-26 19:28 | 27.18078 | 33.80205 | 44 ft | 27 kts | 165° |
| 2026-04-26 19:28 | 27.17958 | 33.80240 | 44 ft | 27 kts | 165° |
| 2026-04-26 19:28 | 27.17774 | 33.80293 | 43 ft | 16 kts | 166° |
| 2026-04-26 19:28 | 27.17759 | 33.80301 | 43 ft | 10 kts | 151° |
| 2026-04-26 19:29 | 27.17747 | 33.80339 | 43 ft | 1 kts | 73° |
| 2026-04-26 19:29 | 27.17783 | 33.80432 | 43 ft | 16 kts | 57° |
| 2026-04-26 19:29 | 27.17849 | 33.80536 | 43 ft | 16 kts | 65° |
| 2026-04-26 19:29 | 27.17850 | 33.80609 | 43 ft | 0 kts | 89° |
| 2026-04-26 19:30 | 27.17852 | 33.80613 | 43 ft | 0 kts | 77° |
| 2026-04-26 19:30 | 27.17853 | 33.80614 | 43 ft | 1 kts | 78° |
| 2026-04-26 19:30 | 27.17853 | 33.80627 | 43 ft | 3 kts | 85° |
| 2026-04-26 19:30 | 27.17855 | 33.80638 | 43 ft | 0 kts | 78° |